createdAt,value
2023-08-15T00:00:11.480Z,4.88
2023-08-15T00:02:45.949Z,5.22
2023-08-15T00:05:17.981Z,5.10
2023-08-15T00:08:07.871Z,4.95
2023-08-15T00:10:39.869Z,5.03
2023-08-15T00:13:11.909Z,4.75
2023-08-15T00:15:43.860Z,4.97
2023-08-15T00:18:15.709Z,5.38
2023-08-15T00:20:48.957Z,5.00
2023-08-15T00:23:21.513Z,4.70
2023-08-15T00:25:53.508Z,5.07
2023-08-15T00:28:25.372Z,5.38
2023-08-15T00:30:57.404Z,4.72
2023-08-15T00:33:29.550Z,5.38
2023-08-15T00:36:04.272Z,5.50
2023-08-15T00:38:36.212Z,5.13
2023-08-15T00:41:08.364Z,5.40
2023-08-15T00:43:40.800Z,4.80
2023-08-15T00:46:12.883Z,5.28
2023-08-15T00:48:45.288Z,5.03
2023-08-15T00:51:17.918Z,5.00
2023-08-15T00:53:50.422Z,4.90
2023-08-15T00:56:23.166Z,5.22
2023-08-15T00:58:55.463Z,4.93
2023-08-15T01:01:27.534Z,5.22
2023-08-15T01:04:00.553Z,5.32
2023-08-15T01:06:32.515Z,5.25
2023-08-15T01:09:04.687Z,5.32
2023-08-15T01:11:45.949Z,5.20
2023-08-15T01:14:21.197Z,5.30
2023-08-15T01:16:53.563Z,5.15
2023-08-15T01:19:52.505Z,4.68
2023-08-15T01:22:29.587Z,4.90
2023-08-15T01:25:01.554Z,5.07
2023-08-15T01:27:33.534Z,5.30
2023-08-15T01:30:06.729Z,5.28
2023-08-15T01:32:47.945Z,5.18
2023-08-15T01:35:38.940Z,5.15
2023-08-15T01:38:29.681Z,5.10
2023-08-15T01:43:35.063Z,5.60
2023-08-15T01:46:08.572Z,5.28
2023-08-15T01:48:44.367Z,4.95
2023-08-15T01:51:16.418Z,5.40
2023-08-15T01:53:48.462Z,5.13
2023-08-15T01:56:20.422Z,5.30
2023-08-15T01:58:52.467Z,5.13
2023-08-15T02:01:24.536Z,4.80
2023-08-15T02:03:56.477Z,4.72
2023-08-15T02:06:28.476Z,5.10
2023-08-15T02:09:00.503Z,5.10
2023-08-15T02:11:32.504Z,5.13
2023-08-15T02:14:04.619Z,5.22
2023-08-15T02:16:36.629Z,4.80
2023-08-15T02:19:09.062Z,5.43
2023-08-15T02:21:40.983Z,5.30
2023-08-15T02:24:12.934Z,5.03
2023-08-15T02:26:44.887Z,5.30
2023-08-15T02:29:16.836Z,4.97
2023-08-15T02:31:49.198Z,5.63
2023-08-15T02:34:21.060Z,4.90
2023-08-15T02:36:52.993Z,5.10
2023-08-15T02:39:25.017Z,5.40
2023-08-15T02:41:57.406Z,5.38
2023-08-15T02:44:29.362Z,5.20
2023-08-15T02:47:03.508Z,5.22
2023-08-15T02:49:35.558Z,5.50
2023-08-15T02:52:07.481Z,5.50
2023-08-15T02:54:39.568Z,5.70
2023-08-15T02:57:11.525Z,5.18
2023-08-15T02:59:43.602Z,4.95
2023-08-15T03:02:17.053Z,5.53
2023-08-15T03:04:49.263Z,5.38
2023-08-15T03:07:21.262Z,5.65
2023-08-15T03:09:53.394Z,5.60
2023-08-15T03:12:25.462Z,6.10
2023-08-15T03:15:01.219Z,5.80
2023-08-15T03:17:36.092Z,5.60
2023-08-15T03:20:10.386Z,5.65
2023-08-15T03:22:45.585Z,5.85
2023-08-15T03:25:17.895Z,5.85
2023-08-15T03:27:49.953Z,5.60
2023-08-15T03:30:22.126Z,5.90
2023-08-15T03:32:54.179Z,5.95
2023-08-15T03:35:26.590Z,5.75
2023-08-15T03:38:00.349Z,5.90
2023-08-15T03:40:32.305Z,5.72
2023-08-15T03:43:06.849Z,5.93
2023-08-15T03:45:41.015Z,6.22
2023-08-15T03:48:13.078Z,6.05
2023-08-15T03:50:45.216Z,6.00
2023-08-15T03:53:17.121Z,6.30
2023-08-15T03:55:52.774Z,6.65
2023-08-15T03:58:25.419Z,6.50
2023-08-15T04:00:57.337Z,5.80
2023-08-15T04:03:29.328Z,6.20
2023-08-15T04:06:01.789Z,5.97
2023-08-15T04:08:34.177Z,6.18
2023-08-15T04:11:06.270Z,6.28
2023-08-15T04:13:38.530Z,6.20
2023-08-15T04:16:12.437Z,6.15
2023-08-15T04:18:44.368Z,6.55
2023-08-15T04:21:16.741Z,6.50
2023-08-15T04:23:48.782Z,6.63
2023-08-15T04:26:20.670Z,6.63
2023-08-15T04:28:52.578Z,6.80
2023-08-15T04:31:24.623Z,6.10
2023-08-15T04:33:56.603Z,6.15
2023-08-15T04:36:28.448Z,6.13
2023-08-15T04:39:00.573Z,5.97
2023-08-15T04:41:32.574Z,6.28
2023-08-15T04:44:04.734Z,6.57
2023-08-15T04:46:36.689Z,6.00
2023-08-15T04:49:08.770Z,6.07
2023-08-15T04:51:40.625Z,6.32
2023-08-15T04:54:12.503Z,6.15
2023-08-15T04:56:44.587Z,6.35
2023-08-15T04:59:18.618Z,6.32
2023-08-15T05:01:50.852Z,5.80
2023-08-15T05:04:22.892Z,6.00
2023-08-15T05:06:56.904Z,5.85
2023-08-15T05:09:30.546Z,5.40
2023-08-15T05:12:02.657Z,5.47
2023-08-15T05:14:34.983Z,5.88
2023-08-15T05:17:06.936Z,5.57
2023-08-15T05:19:39.216Z,5.82
2023-08-15T05:22:11.306Z,5.60
2023-08-15T05:24:43.533Z,5.20
2023-08-15T05:27:18.997Z,5.15
2023-08-15T05:29:51.330Z,5.35
2023-08-15T05:32:23.328Z,5.13
2023-08-15T05:34:55.391Z,5.55
2023-08-15T05:37:27.273Z,5.53
2023-08-15T05:40:00.630Z,5.22
2023-08-15T05:42:33.783Z,4.78
2023-08-15T05:45:06.080Z,5.25
2023-08-15T05:47:38.169Z,5.43
2023-08-15T05:50:10.585Z,4.90
2023-08-15T05:52:42.441Z,4.57
2023-08-15T05:55:14.367Z,4.88
2023-08-15T05:57:46.283Z,4.38
2023-08-15T06:00:19.841Z,4.90
2023-08-15T06:02:51.776Z,4.35
2023-08-15T06:05:23.860Z,5.30
2023-08-15T06:07:55.734Z,5.20
2023-08-15T06:10:27.731Z,6.38
2023-08-15T06:12:59.770Z,5.53
2023-08-15T06:15:31.787Z,5.35
2023-08-15T06:18:04.075Z,4.18
2023-08-15T06:20:36.153Z,4.40
2023-08-15T06:23:08.175Z,4.43
2023-08-15T06:25:41.975Z,5.35
2023-08-15T06:28:13.870Z,4.43
2023-08-15T06:30:45.870Z,4.68
2023-08-15T06:33:18.367Z,4.45
2023-08-15T06:35:50.327Z,4.53
2023-08-15T06:38:22.334Z,4.47
2023-08-15T06:40:54.418Z,3.85
2023-08-15T06:43:26.486Z,4.10
2023-08-15T06:45:58.392Z,3.97
2023-08-15T06:48:30.451Z,4.25
2023-08-15T06:51:02.538Z,4.35
2023-08-15T06:53:34.797Z,4.13
2023-08-15T06:56:08.337Z,3.92
2023-08-15T06:58:40.433Z,4.00
2023-08-15T07:01:13.398Z,4.80
2023-08-15T07:03:45.429Z,4.40
2023-08-15T07:06:17.641Z,4.47
2023-08-15T07:08:49.764Z,5.32
2023-08-15T07:11:22.253Z,5.05
2023-08-15T07:16:40.172Z,4.25
2023-08-15T07:19:12.209Z,4.47
2023-08-15T07:21:44.547Z,4.30
2023-08-15T07:24:19.212Z,5.55
2023-08-15T07:26:51.272Z,4.78
2023-08-15T07:29:23.309Z,4.18
2023-08-15T07:31:55.340Z,4.18
2023-08-15T07:34:27.332Z,4.10
2023-08-15T07:36:59.226Z,4.07
2023-08-15T07:39:31.189Z,4.30
2023-08-15T07:42:03.448Z,4.47
2023-08-15T07:44:35.522Z,4.15
2023-08-15T07:47:07.459Z,4.00
2023-08-15T07:49:39.560Z,4.00
2023-08-15T07:52:11.641Z,3.80
2023-08-15T07:54:44.978Z,3.42
2023-08-15T07:57:16.881Z,3.90
2023-08-15T07:59:48.771Z,3.35
2023-08-15T08:02:20.913Z,3.58
2023-08-15T08:04:53.132Z,3.70
2023-08-15T08:07:25.056Z,3.70
2023-08-15T08:09:58.536Z,3.78
2023-08-15T08:12:31.601Z,3.58
2023-08-15T08:15:05.157Z,8.20
2023-08-15T08:17:37.114Z,5.13
2023-08-15T08:20:13.503Z,3.47
2023-08-15T08:22:46.088Z,3.45
2023-08-15T08:25:23.933Z,2.58
2023-08-15T08:27:55.806Z,2.58
2023-08-15T08:30:29.674Z,2.90
2023-08-15T08:33:02.817Z,2.83
2023-08-15T08:35:34.715Z,4.00
2023-08-15T08:38:06.633Z,17.35
2023-08-15T08:40:38.620Z,7.00
2023-08-15T08:43:11.267Z,6.68
2023-08-15T08:45:50.134Z,5.10
2023-08-15T08:48:23.265Z,3.08
2023-08-15T08:50:57.115Z,4.43
2023-08-15T08:53:29.156Z,6.05
2023-08-15T08:56:02.626Z,3.20
2023-08-15T08:58:38.546Z,4.78
2023-08-15T09:01:13.338Z,3.38
2023-08-15T09:03:45.511Z,3.78
2023-08-15T09:06:17.562Z,4.90
2023-08-15T09:08:50.521Z,4.35
2023-08-15T09:11:22.395Z,3.90
2023-08-15T09:13:54.336Z,3.55
2023-08-15T09:16:26.713Z,14.13
2023-08-15T09:19:03.566Z,4.18
2023-08-15T09:21:35.503Z,3.88
2023-08-15T09:24:08.159Z,3.65
2023-08-15T09:26:41.118Z,5.00
2023-08-15T09:29:13.689Z,3.88
2023-08-15T09:31:45.697Z,8.80
2023-08-15T09:34:17.705Z,11.85
2023-08-15T09:36:49.656Z,4.28
2023-08-15T09:39:21.627Z,6.75
2023-08-15T09:41:54.266Z,5.45
2023-08-15T09:44:35.461Z,5.72
2023-08-15T09:47:08.330Z,3.60
2023-08-15T09:49:41.270Z,14.95
2023-08-15T09:52:14.387Z,6.65
2023-08-15T09:54:46.883Z,10.80
2023-08-15T09:57:18.893Z,3.88
2023-08-15T09:59:51.048Z,8.05
2023-08-15T10:02:24.207Z,3.97
2023-08-15T10:05:03.764Z,4.70
2023-08-15T10:07:37.194Z,70.22
2023-08-15T10:10:10.522Z,4.47
2023-08-15T10:12:43.311Z,3.85
2023-08-15T10:15:15.773Z,3.80
2023-08-15T10:17:48.105Z,4.25
2023-08-15T10:20:21.175Z,4.15
2023-08-15T10:22:58.651Z,4.45
2023-08-15T10:25:37.831Z,3.92
2023-08-15T10:28:12.037Z,4.25
2023-08-15T10:30:52.276Z,3.70
2023-08-15T10:33:27.582Z,5.30
2023-08-15T10:35:59.502Z,5.50
2023-08-15T10:38:32.479Z,4.88
2023-08-15T10:41:17.120Z,3.83
2023-08-15T10:43:51.169Z,4.35
2023-08-15T10:46:28.947Z,4.32
2023-08-15T10:49:24.218Z,3.92
2023-08-15T10:52:00.294Z,3.90
2023-08-15T10:54:32.280Z,3.92
2023-08-15T10:57:04.705Z,4.20
2023-08-15T10:59:37.313Z,25.52
2023-08-15T11:02:09.356Z,4.88
2023-08-15T11:04:42.891Z,5.05
2023-08-15T11:07:25.331Z,5.30
2023-08-15T11:09:57.282Z,4.47
2023-08-15T11:12:29.302Z,3.90
2023-08-15T11:15:01.314Z,4.10
2023-08-15T11:17:33.272Z,4.50
2023-08-15T11:20:06.925Z,4.32
2023-08-15T11:22:38.854Z,4.32
2023-08-15T11:25:11.427Z,4.40
2023-08-15T11:27:45.731Z,4.63
2023-08-15T11:30:19.028Z,4.65
2023-08-15T11:32:51.508Z,4.40
2023-08-15T11:35:23.978Z,4.40
2023-08-15T11:37:56.032Z,4.20
2023-08-15T11:40:28.059Z,4.13
2023-08-15T11:43:00.297Z,4.45
2023-08-15T11:45:33.511Z,4.13
2023-08-15T11:48:06.460Z,3.97
2023-08-15T11:51:03.924Z,3.90
2023-08-15T11:53:35.921Z,4.30
2023-08-15T11:56:07.859Z,4.05
2023-08-15T11:58:39.848Z,4.20
2023-08-15T12:01:12.981Z,3.63
2023-08-15T12:03:45.149Z,4.10
2023-08-15T12:06:17.212Z,4.20
2023-08-15T12:08:49.533Z,4.00
2023-08-15T12:11:22.274Z,3.85
2023-08-15T12:13:54.191Z,4.03
2023-08-15T12:16:26.235Z,3.90
2023-08-15T12:18:58.762Z,3.80
2023-08-15T12:21:30.758Z,4.10
2023-08-15T12:24:02.672Z,4.13
2023-08-15T12:26:34.675Z,3.90
2023-08-15T12:29:06.623Z,5.25
2023-08-15T12:31:41.083Z,3.70
2023-08-15T12:34:13.158Z,4.00
2023-08-15T12:36:45.144Z,3.92
2023-08-15T12:39:17.912Z,4.20
2023-08-15T12:41:49.904Z,4.00
2023-08-15T12:44:21.866Z,4.10
2023-08-15T12:46:53.785Z,3.88
2023-08-15T12:49:25.887Z,3.90
2023-08-15T12:51:57.961Z,4.05
2023-08-15T12:54:30.183Z,4.00
2023-08-15T12:57:02.655Z,3.85
2023-08-15T12:59:35.045Z,3.83
2023-08-15T13:02:07.594Z,4.15
2023-08-15T13:04:39.537Z,3.60
2023-08-15T13:07:11.626Z,4.05
2023-08-15T13:09:43.590Z,4.45
2023-08-15T13:12:15.656Z,4.32
2023-08-15T13:14:47.781Z,3.95
2023-08-15T13:17:20.368Z,4.95
2023-08-15T13:19:52.478Z,4.18
2023-08-15T13:22:24.931Z,3.95
2023-08-15T13:24:57.143Z,3.88
2023-08-15T13:27:29.161Z,3.85
2023-08-15T13:30:01.075Z,4.10
2023-08-15T13:32:33.188Z,4.05
2023-08-15T13:35:06.231Z,4.45
2023-08-15T13:37:38.239Z,3.85
2023-08-15T13:40:11.390Z,4.00
2023-08-15T13:42:43.947Z,4.07
2023-08-15T13:45:18.411Z,4.38
2023-08-15T13:47:50.557Z,3.90
2023-08-15T13:50:22.646Z,4.05
2023-08-15T13:52:54.569Z,3.95
2023-08-15T13:55:27.565Z,3.40
2023-08-15T13:57:59.447Z,3.78
2023-08-15T14:00:33.661Z,4.07
2023-08-15T14:03:06.222Z,3.80
2023-08-15T14:05:38.255Z,4.03
2023-08-15T14:08:11.014Z,4.00
2023-08-15T14:10:43.103Z,4.07
2023-08-15T14:13:15.098Z,18.63
2023-08-15T14:15:47.106Z,4.57
2023-08-15T14:18:19.081Z,5.22
2023-08-15T14:20:51.007Z,4.05
2023-08-15T14:23:22.993Z,4.10
2023-08-15T14:25:55.340Z,3.88
2023-08-15T14:28:27.244Z,3.85
2023-08-15T14:30:59.108Z,4.03
2023-08-15T14:33:31.109Z,4.18
2023-08-15T14:36:03.133Z,4.00
2023-08-15T14:38:35.085Z,3.90
2023-08-15T14:41:07.090Z,3.70
2023-08-15T14:43:39.025Z,3.90
2023-08-15T14:46:11.231Z,4.13
2023-08-15T14:48:43.184Z,3.72
2023-08-15T14:51:15.162Z,3.53
2023-08-15T14:53:47.098Z,3.95
2023-08-15T14:56:19.003Z,4.03
2023-08-15T14:58:51.035Z,4.05
2023-08-15T15:01:22.937Z,4.00
2023-08-15T15:03:54.962Z,4.15
2023-08-15T15:06:27.019Z,3.78
2023-08-15T15:08:58.894Z,3.83
2023-08-15T15:11:30.798Z,4.07
2023-08-15T15:14:03.609Z,4.20
2023-08-15T15:16:35.606Z,3.85
2023-08-15T15:19:07.632Z,4.20
2023-08-15T15:21:39.671Z,3.95
2023-08-15T15:24:11.711Z,3.75
2023-08-15T15:26:44.081Z,4.05
2023-08-15T15:29:17.134Z,3.90
2023-08-15T15:31:49.571Z,4.22
2023-08-15T15:34:21.600Z,5.05
2023-08-15T15:36:53.576Z,4.38
2023-08-15T15:39:29.086Z,4.15
2023-08-15T15:42:01.689Z,3.90
2023-08-15T15:44:35.413Z,4.25
2023-08-15T15:47:07.604Z,4.07
2023-08-15T15:49:40.426Z,4.43
2023-08-15T15:52:12.513Z,4.28
2023-08-15T15:54:44.486Z,4.43
2023-08-15T15:57:16.406Z,4.20
2023-08-15T15:59:48.301Z,4.40
2023-08-15T16:02:20.563Z,4.40
2023-08-15T16:04:52.704Z,4.13
2023-08-15T16:07:24.580Z,4.55
2023-08-15T16:09:56.497Z,4.55
2023-08-15T16:12:28.397Z,4.55
2023-08-15T16:15:01.707Z,4.32
2023-08-15T16:17:34.203Z,4.47
2023-08-15T16:20:06.750Z,4.40
2023-08-15T16:22:38.732Z,3.75
2023-08-15T16:25:10.761Z,4.13
2023-08-15T16:27:42.707Z,4.32
2023-08-15T16:30:18.100Z,4.85
2023-08-15T16:32:50.882Z,4.30
2023-08-15T16:35:22.885Z,21.08
2023-08-15T16:37:54.940Z,21.02
2023-08-15T16:40:26.873Z,8.13
2023-08-15T16:43:11.765Z,5.18
2023-08-15T16:45:45.593Z,4.38
2023-08-15T16:48:17.550Z,16.50
2023-08-15T16:50:49.423Z,4.78
2023-08-15T16:53:21.352Z,7.10
2023-08-15T16:55:53.265Z,4.82
2023-08-15T16:58:25.482Z,6.78
2023-08-15T17:00:57.388Z,5.10
2023-08-15T17:03:29.901Z,5.63
2023-08-15T17:06:01.840Z,5.00
2023-08-15T17:08:33.963Z,5.90
2023-08-15T17:11:06.039Z,4.68
2023-08-15T17:13:38.116Z,5.18
2023-08-15T17:16:10.071Z,4.82
2023-08-15T17:18:42.027Z,4.65
2023-08-15T17:21:13.960Z,4.97
2023-08-15T17:23:45.914Z,16.85
2023-08-15T17:26:17.828Z,7.50
2023-08-15T17:28:49.711Z,13.00
2023-08-15T17:31:22.169Z,6.95
2023-08-15T17:33:54.164Z,5.75
2023-08-15T17:36:27.749Z,6.55
2023-08-15T17:38:59.785Z,5.65
2023-08-15T17:41:32.377Z,7.53
2023-08-15T17:44:04.610Z,8.18
2023-08-15T17:46:36.561Z,17.77
2023-08-15T17:49:08.582Z,142.85
2023-08-15T17:51:41.057Z,13.02
2023-08-15T17:54:12.912Z,10.95
2023-08-15T17:56:44.831Z,11.48
2023-08-15T17:59:16.801Z,128.98
2023-08-15T18:01:48.841Z,139.68
2023-08-15T18:04:20.934Z,10.75
2023-08-15T18:06:53.005Z,8.73
2023-08-15T18:09:26.131Z,9.45
2023-08-15T18:12:00.744Z,26.55
2023-08-15T18:14:32.926Z,6.65
2023-08-15T18:17:06.189Z,9.00
2023-08-15T18:19:39.870Z,7.43
2023-08-15T18:22:14.487Z,540.50
2023-08-15T18:24:46.841Z,626.80
2023-08-15T18:27:20.919Z,765.05
2023-08-15T18:29:53.205Z,79.60
2023-08-15T18:32:25.379Z,7.57
2023-08-15T18:34:57.699Z,10.93
2023-08-15T18:37:29.665Z,8.65
2023-08-15T18:40:01.727Z,9.60
2023-08-15T18:42:33.644Z,6.13
2023-08-15T18:45:05.949Z,6.20
2023-08-15T18:47:37.954Z,7.25
2023-08-15T18:50:10.390Z,6.50
2023-08-15T18:52:42.394Z,5.30
2023-08-15T18:55:14.626Z,5.57
2023-08-15T18:57:46.631Z,14.50
2023-08-15T19:00:20.268Z,6.40
2023-08-15T19:02:54.020Z,5.47
2023-08-15T19:05:26.266Z,5.95
2023-08-15T19:07:58.214Z,5.90
2023-08-15T19:10:30.124Z,5.80
2023-08-15T19:13:02.025Z,5.75
2023-08-15T19:15:34.208Z,5.88
2023-08-15T19:18:07.297Z,6.50
2023-08-15T19:20:39.285Z,6.90
2023-08-15T19:23:11.582Z,6.10
2023-08-15T19:25:43.552Z,6.32
2023-08-15T19:28:16.627Z,6.45
2023-08-15T19:30:48.501Z,6.07
2023-08-15T19:33:20.381Z,9.68
2023-08-15T19:35:52.295Z,50.35
2023-08-15T19:38:24.249Z,9.82
2023-08-15T19:40:56.165Z,6.90
2023-08-15T19:43:28.151Z,7.00
2023-08-15T19:46:00.137Z,11.05
2023-08-15T19:48:32.210Z,6.85
2023-08-15T19:51:05.044Z,7.80
2023-08-15T19:53:36.986Z,6.90
2023-08-15T19:56:09.010Z,6.45
2023-08-15T19:58:41.103Z,7.00
2023-08-15T20:01:13.008Z,6.70
2023-08-15T20:03:45.850Z,6.55
2023-08-15T20:06:18.757Z,7.90
2023-08-15T20:08:50.686Z,6.93
2023-08-15T20:11:22.678Z,6.38
2023-08-15T20:13:54.587Z,6.93
2023-08-15T20:16:26.735Z,6.88
2023-08-15T20:18:58.754Z,8.73
2023-08-15T20:21:31.249Z,8.10
2023-08-15T20:24:03.318Z,7.97
2023-08-15T20:26:35.248Z,7.40
2023-08-15T20:29:07.193Z,6.43
2023-08-15T20:31:39.173Z,7.40
2023-08-15T20:34:11.223Z,6.97
2023-08-15T20:36:43.215Z,7.40
2023-08-15T20:39:15.112Z,7.43
2023-08-15T20:41:47.129Z,6.55
2023-08-15T20:44:19.206Z,35.53
2023-08-15T20:46:51.171Z,49.10
2023-08-15T20:49:23.346Z,11.15
2023-08-15T20:51:55.370Z,6.57
2023-08-15T20:54:29.301Z,8.63
2023-08-15T20:57:01.252Z,17.08
2023-08-15T20:59:33.393Z,7.45
2023-08-15T21:02:06.333Z,6.82
2023-08-15T21:04:38.396Z,6.97
2023-08-15T21:07:10.456Z,7.00
2023-08-15T21:09:42.747Z,6.80
2023-08-15T21:12:14.836Z,7.35
2023-08-15T21:14:46.889Z,7.22
2023-08-15T21:17:18.865Z,7.47
2023-08-15T21:19:50.819Z,7.63
2023-08-15T21:22:22.906Z,7.68
2023-08-15T21:24:55.450Z,7.80
2023-08-15T21:27:27.448Z,6.93
2023-08-15T21:29:59.426Z,7.38
2023-08-15T21:32:31.447Z,8.13
2023-08-15T21:35:03.597Z,7.60
2023-08-15T21:37:36.604Z,6.95
2023-08-15T21:40:09.103Z,7.22
2023-08-15T21:42:41.068Z,7.15
2023-08-15T21:45:12.991Z,6.28
2023-08-15T21:47:44.884Z,7.13
2023-08-15T21:50:17.027Z,7.75
2023-08-15T21:52:48.955Z,7.10
2023-08-15T21:55:20.938Z,7.20
2023-08-15T21:57:53.274Z,7.07
2023-08-15T22:00:27.793Z,8.13
2023-08-15T22:02:59.976Z,7.45
2023-08-15T22:05:33.033Z,7.25
2023-08-15T22:08:05.179Z,7.40
2023-08-15T22:10:37.118Z,7.10
2023-08-15T22:13:09.297Z,7.38
2023-08-15T22:15:41.365Z,7.40
2023-08-15T22:18:20.500Z,7.03
2023-08-15T22:20:56.263Z,7.05
2023-08-15T22:23:28.213Z,7.10
2023-08-15T22:26:00.145Z,6.97
2023-08-15T22:28:32.224Z,7.47
2023-08-15T22:31:04.197Z,7.28
2023-08-15T22:33:36.080Z,7.38
2023-08-15T22:36:08.032Z,7.20
2023-08-15T22:38:39.896Z,7.05
2023-08-15T22:41:12.254Z,7.53
2023-08-15T22:43:44.192Z,7.03
2023-08-15T22:46:16.143Z,6.82
2023-08-15T22:48:48.074Z,6.18
2023-08-15T22:51:20.000Z,6.50
2023-08-15T22:53:52.700Z,5.95
2023-08-15T22:56:24.832Z,5.15
2023-08-15T22:58:56.826Z,5.18
2023-08-15T23:01:28.796Z,4.55
2023-08-15T23:04:00.885Z,4.63
2023-08-15T23:06:32.890Z,3.60
2023-08-15T23:09:04.959Z,3.92
2023-08-15T23:11:36.867Z,5.30
2023-08-15T23:14:08.826Z,3.88
2023-08-15T23:16:40.750Z,4.18
2023-08-15T23:19:12.707Z,4.00
2023-08-15T23:21:44.749Z,3.13
2023-08-15T23:24:16.811Z,4.03
2023-08-15T23:26:48.682Z,3.47
2023-08-15T23:29:20.751Z,3.10
2023-08-15T23:31:52.669Z,3.35
2023-08-15T23:34:24.855Z,2.85
2023-08-15T23:36:56.815Z,2.13
2023-08-15T23:39:28.800Z,2.38
2023-08-15T23:42:00.795Z,2.47
2023-08-15T23:44:32.707Z,2.03
2023-08-15T23:47:04.883Z,1.83
2023-08-15T23:49:36.788Z,1.48
2023-08-15T23:52:08.796Z,1.42
2023-08-15T23:54:40.737Z,1.10
2023-08-15T23:57:12.691Z,1.08
2023-08-15T23:59:44.621Z,1.17
